sensor_id;sensor_type;location;lat;lon;timestamp;pressure;altitude;pressure_sealevel;temperature;humidity
62708;BME280;48769;51.624;5.886;2023-03-13T00:01:27;100141.97;;;9.83;100.00
62708;BME280;48769;51.624;5.886;2023-03-13T00:03:53;100145.94;;;9.90;100.00
62708;BME280;48769;51.624;5.886;2023-03-13T00:06:20;100126.56;;;9.91;100.00
62708;BME280;48769;51.624;5.886;2023-03-13T00:08:46;100122.00;;;9.93;100.00
62708;BME280;48769;51.624;5.886;2023-03-13T00:11:14;100114.19;;;9.92;100.00
62708;BME280;48769;51.624;5.886;2023-03-13T00:13:40;100111.56;;;9.92;100.00
62708;BME280;48769;51.624;5.886;2023-03-13T00:16:09;100112.59;;;9.89;100.00
62708;BME280;48769;51.624;5.886;2023-03-13T00:18:34;100093.09;;;9.92;100.00
62708;BME280;48769;51.624;5.886;2023-03-13T00:21:01;100090.53;;;9.90;100.00
62708;BME280;48769;51.624;5.886;2023-03-13T00:23:31;100077.63;;;9.86;100.00
62708;BME280;48769;51.624;5.886;2023-03-13T00:26:02;100080.81;;;9.91;100.00
62708;BME280;48769;51.624;5.886;2023-03-13T00:28:29;100069.44;;;9.90;100.00
62708;BME280;48769;51.624;5.886;2023-03-13T00:31:05;100067.56;;;9.92;100.00
62708;BME280;48769;51.624;5.886;2023-03-13T00:33:35;100066.06;;;9.88;100.00
62708;BME280;48769;51.624;5.886;2023-03-13T00:36:04;100059.25;;;9.84;100.00
62708;BME280;48769;51.624;5.886;2023-03-13T00:38:30;100053.31;;;9.80;100.00
62708;BME280;48769;51.624;5.886;2023-03-13T00:41:10;100058.69;;;9.79;100.00
62708;BME280;48769;51.624;5.886;2023-03-13T00:43:39;100048.59;;;9.71;100.00
62708;BME280;48769;51.624;5.886;2023-03-13T00:46:05;100051.22;;;9.71;100.00
62708;BME280;48769;51.624;5.886;2023-03-13T00:48:31;100042.47;;;9.71;100.00
62708;BME280;48769;51.624;5.886;2023-03-13T00:50:57;100036.72;;;9.64;100.00
62708;BME280;48769;51.624;5.886;2023-03-13T00:53:23;100036.72;;;9.64;100.00
62708;BME280;48769;51.624;5.886;2023-03-13T00:55:58;100029.66;;;9.65;100.00
62708;BME280;48769;51.624;5.886;2023-03-13T00:58:25;100026.53;;;9.58;100.00
62708;BME280;48769;51.624;5.886;2023-03-13T01:00:51;100015.34;;;9.54;100.00
62708;BME280;48769;51.624;5.886;2023-03-13T01:03:17;100002.34;;;9.51;100.00
62708;BME280;48769;51.624;5.886;2023-03-13T01:05:42;100010.34;;;9.50;100.00
62708;BME280;48769;51.624;5.886;2023-03-13T01:08:08;99997.16;;;9.50;100.00
62708;BME280;48769;51.624;5.886;2023-03-13T01:10:33;99994.44;;;9.51;100.00
62708;BME280;48769;51.624;5.886;2023-03-13T01:13:02;99985.78;;;9.49;100.00
62708;BME280;48769;51.624;5.886;2023-03-13T01:15:29;99983.88;;;9.51;100.00
62708;BME280;48769;51.624;5.886;2023-03-13T01:17:55;99983.03;;;9.51;100.00
62708;BME280;48769;51.624;5.886;2023-03-13T01:20:20;99966.19;;;9.53;100.00
62708;BME280;48769;51.624;5.886;2023-03-13T01:22:45;99962.59;;;9.54;100.00
62708;BME280;48769;51.624;5.886;2023-03-13T01:25:11;99947.72;;;9.53;100.00
62708;BME280;48769;51.624;5.886;2023-03-13T01:27:36;99954.63;;;9.56;100.00
62708;BME280;48769;51.624;5.886;2023-03-13T01:30:01;99940.94;;;9.64;100.00
62708;BME280;48769;51.624;5.886;2023-03-13T01:32:27;99929.25;;;9.68;100.00
62708;BME280;48769;51.624;5.886;2023-03-13T01:34:52;99928.53;;;9.66;100.00
62708;BME280;48769;51.624;5.886;2023-03-13T01:37:17;99928.97;;;9.58;100.00
62708;BME280;48769;51.624;5.886;2023-03-13T01:39:43;99912.44;;;9.56;100.00
62708;BME280;48769;51.624;5.886;2023-03-13T01:42:08;99907.81;;;9.59;100.00
62708;BME280;48769;51.624;5.886;2023-03-13T01:47:13;99897.81;;;9.65;100.00
62708;BME280;48769;51.624;5.886;2023-03-13T01:49:39;99893.66;;;9.60;100.00
62708;BME280;48769;51.624;5.886;2023-03-13T01:52:08;99897.91;;;9.63;100.00
62708;BME280;48769;51.624;5.886;2023-03-13T01:54:49;99886.53;;;9.63;100.00
62708;BME280;48769;51.624;5.886;2023-03-13T01:57:24;99879.16;;;9.68;100.00
62708;BME280;48769;51.624;5.886;2023-03-13T02:00:12;99881.06;;;9.66;100.00
62708;BME280;48769;51.624;5.886;2023-03-13T02:02:46;99864.16;;;9.68;100.00
62708;BME280;48769;51.624;5.886;2023-03-13T02:05:13;99861.16;;;9.74;100.00
62708;BME280;48769;51.624;5.886;2023-03-13T02:07:45;99859.16;;;9.78;100.00
62708;BME280;48769;51.624;5.886;2023-03-13T02:10:13;99841.25;;;9.83;100.00
62708;BME280;48769;51.624;5.886;2023-03-13T02:12:40;99841.50;;;9.93;100.00
62708;BME280;48769;51.624;5.886;2023-03-13T02:15:09;99842.56;;;9.90;100.00
62708;BME280;48769;51.624;5.886;2023-03-13T02:17:37;99829.47;;;9.89;100.00
62708;BME280;48769;51.624;5.886;2023-03-13T02:20:03;99809.84;;;9.93;100.00
62708;BME280;48769;51.624;5.886;2023-03-13T02:22:48;99816.94;;;9.92;100.00
62708;BME280;48769;51.624;5.886;2023-03-13T02:28:16;99799.53;;;10.02;100.00
62708;BME280;48769;51.624;5.886;2023-03-13T02:30:43;99804.81;;;10.02;100.00
62708;BME280;48769;51.624;5.886;2023-03-13T02:33:13;99784.78;;;10.13;100.00
62708;BME280;48769;51.624;5.886;2023-03-13T02:35:40;99781.94;;;10.16;100.00
62708;BME280;48769;51.624;5.886;2023-03-13T02:38:08;99759.78;;;10.18;100.00
62708;BME280;48769;51.624;5.886;2023-03-13T02:40:37;99764.56;;;10.26;100.00
62708;BME280;48769;51.624;5.886;2023-03-13T02:43:10;99737.56;;;10.35;100.00
62708;BME280;48769;51.624;5.886;2023-03-13T02:45:37;99735.25;;;10.31;100.00
62708;BME280;48769;51.624;5.886;2023-03-13T02:48:03;99746.66;;;10.31;100.00
62708;BME280;48769;51.624;5.886;2023-03-13T02:50:28;99745.16;;;10.27;100.00
62708;BME280;48769;51.624;5.886;2023-03-13T02:52:58;99748.31;;;10.32;100.00
62708;BME280;48769;51.624;5.886;2023-03-13T02:55:38;99748.13;;;10.35;100.00
62708;BME280;48769;51.624;5.886;2023-03-13T02:58:05;99739.88;;;10.40;100.00
62708;BME280;48769;51.624;5.886;2023-03-13T03:00:31;99736.81;;;10.46;100.00
62708;BME280;48769;51.624;5.886;2023-03-13T03:02:56;99742.00;;;10.47;100.00
62708;BME280;48769;51.624;5.886;2023-03-13T03:05:22;99748.75;;;10.51;100.00
62708;BME280;48769;51.624;5.886;2023-03-13T03:07:48;99739.38;;;10.60;100.00
62708;BME280;48769;51.624;5.886;2023-03-13T03:10:15;99739.25;;;10.62;100.00
62708;BME280;48769;51.624;5.886;2023-03-13T03:12:40;99762.72;;;10.66;100.00
62708;BME280;48769;51.624;5.886;2023-03-13T03:15:07;99753.19;;;10.64;100.00
62708;BME280;48769;51.624;5.886;2023-03-13T03:17:32;99746.97;;;10.65;100.00
62708;BME280;48769;51.624;5.886;2023-03-13T03:19:58;99751.28;;;10.66;100.00
62708;BME280;48769;51.624;5.886;2023-03-13T03:22:23;99752.78;;;10.70;100.00
62708;BME280;48769;51.624;5.886;2023-03-13T03:24:48;99743.91;;;10.71;100.00
62708;BME280;48769;51.624;5.886;2023-03-13T03:27:14;99746.44;;;10.72;100.00
62708;BME280;48769;51.624;5.886;2023-03-13T03:29:39;99734.59;;;10.78;100.00
62708;BME280;48769;51.624;5.886;2023-03-13T03:32:04;99730.78;;;10.82;100.00
62708;BME280;48769;51.624;5.886;2023-03-13T03:34:30;99732.69;;;10.80;100.00
62708;BME280;48769;51.624;5.886;2023-03-13T03:36:55;99734.38;;;10.81;100.00
62708;BME280;48769;51.624;5.886;2023-03-13T03:39:21;99731.31;;;10.87;100.00
62708;BME280;48769;51.624;5.886;2023-03-13T03:41:46;99733.94;;;10.87;100.00
62708;BME280;48769;51.624;5.886;2023-03-13T03:44:12;99722.09;;;10.93;100.00
62708;BME280;48769;51.624;5.886;2023-03-13T03:46:37;99724.75;;;10.93;100.00
62708;BME280;48769;51.624;5.886;2023-03-13T03:49:02;99729.81;;;10.96;100.00
62708;BME280;48769;51.624;5.886;2023-03-13T03:51:28;99719.66;;;11.03;100.00
62708;BME280;48769;51.624;5.886;2023-03-13T03:53:53;99717.00;;;11.03;100.00
62708;BME280;48769;51.624;5.886;2023-03-13T03:56:19;99711.50;;;11.06;100.00
62708;BME280;48769;51.624;5.886;2023-03-13T03:58:44;99721.34;;;11.04;100.00
62708;BME280;48769;51.624;5.886;2023-03-13T04:01:09;99718.47;;;11.07;100.00
62708;BME280;48769;51.624;5.886;2023-03-13T04:03:37;99712.75;;;11.13;100.00
62708;BME280;48769;51.624;5.886;2023-03-13T04:06:03;99717.81;;;11.16;100.00
62708;BME280;48769;51.624;5.886;2023-03-13T04:08:28;99720.56;;;11.14;100.00
62708;BME280;48769;51.624;5.886;2023-03-13T04:10:54;99715.91;;;11.18;100.00
62708;BME280;48769;51.624;5.886;2023-03-13T04:13:19;99716.75;;;11.18;100.00
62708;BME280;48769;51.624;5.886;2023-03-13T04:15:45;99703.31;;;11.21;100.00
62708;BME280;48769;51.624;5.886;2023-03-13T04:18:10;99701.53;;;11.22;100.00
62708;BME280;48769;51.624;5.886;2023-03-13T04:20:36;99713.19;;;11.31;100.00
62708;BME280;48769;51.624;5.886;2023-03-13T04:23:01;99694.59;;;11.32;100.00
62708;BME280;48769;51.624;5.886;2023-03-13T04:25:27;99696.81;;;11.38;100.00
62708;BME280;48769;51.624;5.886;2023-03-13T04:27:52;99707.16;;;11.41;100.00
62708;BME280;48769;51.624;5.886;2023-03-13T04:30:17;99697.28;;;11.43;100.00
62708;BME280;48769;51.624;5.886;2023-03-13T04:32:43;99699.00;;;11.44;100.00
62708;BME280;48769;51.624;5.886;2023-03-13T04:35:08;99694.41;;;11.46;100.00
62708;BME280;48769;51.624;5.886;2023-03-13T04:37:33;99699.25;;;11.53;100.00
62708;BME280;48769;51.624;5.886;2023-03-13T04:39:59;99693.97;;;11.53;100.00
62708;BME280;48769;51.624;5.886;2023-03-13T04:42:24;99699.03;;;11.56;100.00
62708;BME280;48769;51.624;5.886;2023-03-13T04:44:50;99682.94;;;11.59;100.00
62708;BME280;48769;51.624;5.886;2023-03-13T04:47:15;99667.91;;;11.59;100.00
62708;BME280;48769;51.624;5.886;2023-03-13T04:49:40;99663.97;;;11.65;100.00
62708;BME280;48769;51.624;5.886;2023-03-13T04:52:06;99666.63;;;11.65;100.00
62708;BME280;48769;51.624;5.886;2023-03-13T04:54:31;99656.56;;;11.70;100.00
62708;BME280;48769;51.624;5.886;2023-03-13T04:56:57;99655.59;;;11.71;100.00
62708;BME280;48769;51.624;5.886;2023-03-13T04:59:22;99656.19;;;11.75;100.00
62708;BME280;48769;51.624;5.886;2023-03-13T05:01:47;99660.75;;;11.73;100.00
62708;BME280;48769;51.624;5.886;2023-03-13T05:04:13;99645.59;;;11.75;100.00
62708;BME280;48769;51.624;5.886;2023-03-13T05:06:38;99646.22;;;11.78;100.00
62708;BME280;48769;51.624;5.886;2023-03-13T05:09:04;99643.47;;;11.80;100.00
62708;BME280;48769;51.624;5.886;2023-03-13T05:11:29;99653.91;;;11.81;100.00
62708;BME280;48769;51.624;5.886;2023-03-13T05:13:55;99643.34;;;11.81;100.00
62708;BME280;48769;51.624;5.886;2023-03-13T05:16:20;99636.03;;;11.85;100.00
62708;BME280;48769;51.624;5.886;2023-03-13T05:18:46;99647.66;;;11.82;100.00
62708;BME280;48769;51.624;5.886;2023-03-13T05:21:11;99625.47;;;11.85;100.00
62708;BME280;48769;51.624;5.886;2023-03-13T05:23:36;99627.03;;;11.87;100.00
62708;BME280;48769;51.624;5.886;2023-03-13T05:26:02;99626.81;;;11.90;100.00
62708;BME280;48769;51.624;5.886;2023-03-13T05:28:27;99619.09;;;11.87;100.00
62708;BME280;48769;51.624;5.886;2023-03-13T05:30:53;99609.34;;;11.88;100.00
62708;BME280;48769;51.624;5.886;2023-03-13T05:33:18;99625.59;;;11.95;100.00
62708;BME280;48769;51.624;5.886;2023-03-13T05:35:45;99620.81;;;12.00;100.00
62708;BME280;48769;51.624;5.886;2023-03-13T05:38:10;99614.16;;;11.94;100.00
62708;BME280;48769;51.624;5.886;2023-03-13T05:40:36;99623.31;;;12.01;100.00
62708;BME280;48769;51.624;5.886;2023-03-13T05:43:01;99613.22;;;12.06;100.00
62708;BME280;48769;51.624;5.886;2023-03-13T05:45:27;99622.72;;;12.09;100.00
62708;BME280;48769;51.624;5.886;2023-03-13T05:47:52;99626.22;;;12.09;100.00
62708;BME280;48769;51.624;5.886;2023-03-13T05:50:17;99619.13;;;12.10;100.00
62708;BME280;48769;51.624;5.886;2023-03-13T05:52:43;99635.25;;;12.18;100.00
62708;BME280;48769;51.624;5.886;2023-03-13T05:55:08;99629.72;;;12.21;100.00
62708;BME280;48769;51.624;5.886;2023-03-13T05:57:34;99629.00;;;12.19;100.00
62708;BME280;48769;51.624;5.886;2023-03-13T05:59:59;99628.53;;;12.25;100.00
62708;BME280;48769;51.624;5.886;2023-03-13T06:02:24;99624.69;;;12.29;100.00
62708;BME280;48769;51.624;5.886;2023-03-13T06:04:50;99626.97;;;12.34;100.00
62708;BME280;48769;51.624;5.886;2023-03-13T06:07:15;99623.97;;;12.38;100.00
62708;BME280;48769;51.624;5.886;2023-03-13T06:09:41;99621.78;;;12.44;100.00
62708;BME280;48769;51.624;5.886;2023-03-13T06:12:07;99624.09;;;12.48;100.00
62708;BME280;48769;51.624;5.886;2023-03-13T06:14:32;99620.22;;;12.52;100.00
62708;BME280;48769;51.624;5.886;2023-03-13T06:16:58;99618.56;;;12.51;100.00
62708;BME280;48769;51.624;5.886;2023-03-13T06:19:24;99626.34;;;12.53;100.00
62708;BME280;48769;51.624;5.886;2023-03-13T06:21:50;99637.91;;;12.63;100.00
62708;BME280;48769;51.624;5.886;2023-03-13T06:24:15;99627.31;;;12.63;100.00
62708;BME280;48769;51.624;5.886;2023-03-13T06:26:41;99626.59;;;12.72;100.00
62708;BME280;48769;51.624;5.886;2023-03-13T06:29:06;99638.84;;;12.73;100.00
62708;BME280;48769;51.624;5.886;2023-03-13T06:31:31;99622.97;;;12.73;100.00
62708;BME280;48769;51.624;5.886;2023-03-13T06:33:56;99623.78;;;12.74;100.00
62708;BME280;48769;51.624;5.886;2023-03-13T06:36:23;99612.13;;;12.76;100.00
62708;BME280;48769;51.624;5.886;2023-03-13T06:38:49;99618.25;;;12.77;100.00
62708;BME280;48769;51.624;5.886;2023-03-13T06:41:14;99622.97;;;12.84;100.00
62708;BME280;48769;51.624;5.886;2023-03-13T06:43:40;99618.59;;;12.83;100.00
62708;BME280;48769;51.624;5.886;2023-03-13T06:46:06;99616.53;;;12.98;100.00
62708;BME280;48769;51.624;5.886;2023-03-13T06:48:32;99610.88;;;12.92;100.00
62708;BME280;48769;51.624;5.886;2023-03-13T06:50:57;99606.91;;;12.97;100.00
62708;BME280;48769;51.624;5.886;2023-03-13T06:53:23;99610.16;;;13.01;100.00
62708;BME280;48769;51.624;5.886;2023-03-13T06:55:48;99605.94;;;12.98;100.00
62708;BME280;48769;51.624;5.886;2023-03-13T06:58:14;99624.59;;;13.08;100.00
62708;BME280;48769;51.624;5.886;2023-03-13T07:00:40;99616.50;;;13.09;100.00
62708;BME280;48769;51.624;5.886;2023-03-13T07:03:07;99612.66;;;13.02;100.00
62708;BME280;48769;51.624;5.886;2023-03-13T07:05:32;99614.13;;;12.95;100.00
62708;BME280;48769;51.624;5.886;2023-03-13T07:07:58;99615.91;;;13.06;100.00
62708;BME280;48769;51.624;5.886;2023-03-13T07:10:23;99613.00;;;13.09;100.00
62708;BME280;48769;51.624;5.886;2023-03-13T07:12:49;99616.63;;;13.08;100.00
62708;BME280;48769;51.624;5.886;2023-03-13T07:15:14;99604.69;;;13.14;100.00
62708;BME280;48769;51.624;5.886;2023-03-13T07:17:39;99602.41;;;13.09;100.00
62708;BME280;48769;51.624;5.886;2023-03-13T07:20:05;99613.84;;;13.09;100.00
62708;BME280;48769;51.624;5.886;2023-03-13T07:22:33;99612.75;;;13.12;100.00
62708;BME280;48769;51.624;5.886;2023-03-13T07:24:59;99603.06;;;13.22;100.00
62708;BME280;48769;51.624;5.886;2023-03-13T07:27:24;99608.63;;;13.19;100.00
62708;BME280;48769;51.624;5.886;2023-03-13T07:29:49;99593.44;;;13.21;100.00
62708;BME280;48769;51.624;5.886;2023-03-13T07:32:15;99601.41;;;13.21;100.00
62708;BME280;48769;51.624;5.886;2023-03-13T07:34:41;99602.00;;;13.25;100.00
62708;BME280;48769;51.624;5.886;2023-03-13T07:37:10;99599.84;;;13.30;100.00
62708;BME280;48769;51.624;5.886;2023-03-13T07:39:35;99604.97;;;13.43;100.00
62708;BME280;48769;51.624;5.886;2023-03-13T07:42:00;99605.47;;;13.37;100.00
62708;BME280;48769;51.624;5.886;2023-03-13T07:44:26;99598.94;;;13.41;100.00
62708;BME280;48769;51.624;5.886;2023-03-13T07:46:51;99606.91;;;13.41;100.00
62708;BME280;48769;51.624;5.886;2023-03-13T07:49:16;99598.44;;;13.47;100.00
62708;BME280;48769;51.624;5.886;2023-03-13T07:51:41;99588.97;;;13.54;100.00
62708;BME280;48769;51.624;5.886;2023-03-13T07:54:07;99604.91;;;13.54;100.00
62708;BME280;48769;51.624;5.886;2023-03-13T07:56:32;99597.66;;;13.56;100.00
62708;BME280;48769;51.624;5.886;2023-03-13T07:58:58;99608.53;;;13.53;100.00
62708;BME280;48769;51.624;5.886;2023-03-13T08:01:25;99602.84;;;13.57;100.00
62708;BME280;48769;51.624;5.886;2023-03-13T08:03:52;99596.69;;;13.57;100.00
62708;BME280;48769;51.624;5.886;2023-03-13T08:06:21;99586.78;;;13.59;100.00
62708;BME280;48769;51.624;5.886;2023-03-13T08:08:48;99599.34;;;13.57;100.00
62708;BME280;48769;51.624;5.886;2023-03-13T08:11:16;99606.31;;;13.58;100.00
62708;BME280;48769;51.624;5.886;2023-03-13T08:13:42;99604.66;;;13.57;100.00
62708;BME280;48769;51.624;5.886;2023-03-13T08:16:13;99609.38;;;13.53;100.00
62708;BME280;48769;51.624;5.886;2023-03-13T08:18:44;99601.47;;;13.63;100.00
62708;BME280;48769;51.624;5.886;2023-03-13T08:21:13;99600.97;;;13.69;100.00
62708;BME280;48769;51.624;5.886;2023-03-13T08:23:39;99598.22;;;13.80;100.00
62708;BME280;48769;51.624;5.886;2023-03-13T08:26:13;99596.69;;;13.99;100.00
62708;BME280;48769;51.624;5.886;2023-03-13T08:28:39;99586.47;;;14.25;100.00
62708;BME280;48769;51.624;5.886;2023-03-13T08:31:12;99576.41;;;14.29;100.00
62708;BME280;48769;51.624;5.886;2023-03-13T08:33:39;99580.34;;;14.34;100.00
62708;BME280;48769;51.624;5.886;2023-03-13T08:38:48;99568.03;;;14.23;100.00
62708;BME280;48769;51.624;5.886;2023-03-13T08:41:18;99562.25;;;14.18;100.00
62708;BME280;48769;51.624;5.886;2023-03-13T08:43:44;99557.34;;;14.14;100.00
62708;BME280;48769;51.624;5.886;2023-03-13T08:46:10;99565.16;;;14.15;100.00
62708;BME280;48769;51.624;5.886;2023-03-13T08:48:36;99566.78;;;14.07;100.00
62708;BME280;48769;51.624;5.886;2023-03-13T08:51:05;99572.88;;;14.18;100.00
62708;BME280;48769;51.624;5.886;2023-03-13T08:53:32;99570.56;;;14.35;100.00
62708;BME280;48769;51.624;5.886;2023-03-13T08:55:58;99566.28;;;14.43;100.00
62708;BME280;48769;51.624;5.886;2023-03-13T08:58:23;99565.59;;;14.51;100.00
62708;BME280;48769;51.624;5.886;2023-03-13T09:00:49;99553.34;;;14.69;100.00
62708;BME280;48769;51.624;5.886;2023-03-13T09:03:14;99548.91;;;14.80;100.00
62708;BME280;48769;51.624;5.886;2023-03-13T09:05:41;99553.25;;;14.90;100.00
62708;BME280;48769;51.624;5.886;2023-03-13T09:08:06;99553.69;;;15.05;100.00
62708;BME280;48769;51.624;5.886;2023-03-13T09:10:32;99550.88;;;15.16;100.00
62708;BME280;48769;51.624;5.886;2023-03-13T09:12:57;99556.63;;;15.22;100.00
62708;BME280;48769;51.624;5.886;2023-03-13T09:15:23;99542.91;;;15.16;100.00
62708;BME280;48769;51.624;5.886;2023-03-13T09:17:48;99566.56;;;15.10;100.00
62708;BME280;48769;51.624;5.886;2023-03-13T09:20:14;99547.94;;;15.10;100.00
62708;BME280;48769;51.624;5.886;2023-03-13T09:22:39;99559.84;;;15.15;100.00
62708;BME280;48769;51.624;5.886;2023-03-13T09:25:05;99519.34;;;15.41;100.00
62708;BME280;48769;51.624;5.886;2023-03-13T09:27:30;99532.91;;;15.77;100.00
62708;BME280;48769;51.624;5.886;2023-03-13T09:29:55;99532.66;;;16.07;100.00
62708;BME280;48769;51.624;5.886;2023-03-13T09:32:21;99530.31;;;15.95;100.00
62708;BME280;48769;51.624;5.886;2023-03-13T09:34:46;99525.16;;;15.93;100.00
62708;BME280;48769;51.624;5.886;2023-03-13T09:37:11;99522.34;;;15.85;100.00
62708;BME280;48769;51.624;5.886;2023-03-13T09:39:37;99520.56;;;15.76;100.00
62708;BME280;48769;51.624;5.886;2023-03-13T09:42:21;99514.22;;;16.51;100.00
62708;BME280;48769;51.624;5.886;2023-03-13T09:44:58;99500.66;;;17.52;100.00
62708;BME280;48769;51.624;5.886;2023-03-13T09:47:47;99480.72;;;17.72;100.00
62708;BME280;48769;51.624;5.886;2023-03-13T09:50:20;99484.25;;;17.73;100.00
62708;BME280;48769;51.624;5.886;2023-03-13T09:52:55;99482.63;;;17.80;100.00
62708;BME280;48769;51.624;5.886;2023-03-13T09:55:25;99487.03;;;17.89;100.00
62708;BME280;48769;51.624;5.886;2023-03-13T09:57:54;99461.50;;;18.45;100.00
62708;BME280;48769;51.624;5.886;2023-03-13T10:00:26;99442.03;;;19.35;100.00
62708;BME280;48769;51.624;5.886;2023-03-13T10:05:56;99461.88;;;18.59;100.00
62708;BME280;48769;51.624;5.886;2023-03-13T10:08:25;99450.91;;;18.78;100.00
62708;BME280;48769;51.624;5.886;2023-03-13T10:10:56;99453.66;;;18.44;100.00
62708;BME280;48769;51.624;5.886;2023-03-13T10:13:40;99450.94;;;17.85;100.00
62708;BME280;48769;51.624;5.886;2023-03-13T10:16:17;99457.06;;;17.51;100.00
62708;BME280;48769;51.624;5.886;2023-03-13T10:18:48;99460.41;;;17.27;100.00
62708;BME280;48769;51.624;5.886;2023-03-13T10:21:19;99465.50;;;17.13;100.00
62708;BME280;48769;51.624;5.886;2023-03-13T10:23:52;99460.63;;;17.34;100.00
62708;BME280;48769;51.624;5.886;2023-03-13T10:26:28;99446.78;;;18.33;100.00
62708;BME280;48769;51.624;5.886;2023-03-13T10:28:55;99424.31;;;19.18;100.00
62708;BME280;48769;51.624;5.886;2023-03-13T10:31:31;99422.41;;;19.67;100.00
62708;BME280;48769;51.624;5.886;2023-03-13T10:34:11;99428.50;;;18.87;100.00
62708;BME280;48769;51.624;5.886;2023-03-13T10:36:47;99414.34;;;18.28;100.00
62708;BME280;48769;51.624;5.886;2023-03-13T10:39:25;99414.22;;;17.87;100.00
62708;BME280;48769;51.624;5.886;2023-03-13T10:41:56;99425.44;;;17.65;100.00
62708;BME280;48769;51.624;5.886;2023-03-13T10:44:29;99430.59;;;17.58;100.00
62708;BME280;48769;51.624;5.886;2023-03-13T10:46:59;99437.28;;;17.36;100.00
62708;BME280;48769;51.624;5.886;2023-03-13T10:49:26;99407.63;;;17.39;100.00
62708;BME280;48769;51.624;5.886;2023-03-13T10:51:59;99413.63;;;17.41;100.00
62708;BME280;48769;51.624;5.886;2023-03-13T10:54:33;99415.88;;;17.28;100.00
62708;BME280;48769;51.624;5.886;2023-03-13T10:59:46;99414.34;;;17.51;100.00
62708;BME280;48769;51.624;5.886;2023-03-13T11:02:36;99398.53;;;17.84;100.00
62708;BME280;48769;51.624;5.886;2023-03-13T11:07:47;99397.47;;;18.36;100.00
62708;BME280;48769;51.624;5.886;2023-03-13T11:12:44;99393.69;;;18.47;100.00
62708;BME280;48769;51.624;5.886;2023-03-13T11:15:19;99396.69;;;18.43;100.00
62708;BME280;48769;51.624;5.886;2023-03-13T11:17:54;99393.63;;;18.14;100.00
62708;BME280;48769;51.624;5.886;2023-03-13T11:20:28;99372.25;;;18.30;100.00
62708;BME280;48769;51.624;5.886;2023-03-13T11:25:42;99394.75;;;17.69;100.00
62708;BME280;48769;51.624;5.886;2023-03-13T11:31:14;99374.91;;;17.71;100.00
62708;BME280;48769;51.624;5.886;2023-03-13T11:36:29;99362.47;;;17.88;100.00
62708;BME280;48769;51.624;5.886;2023-03-13T11:45:02;99355.25;;;17.81;100.00
62708;BME280;48769;51.624;5.886;2023-03-13T11:53:03;99366.13;;;17.87;100.00
62708;BME280;48769;51.624;5.886;2023-03-13T11:58:37;99349.34;;;18.11;100.00
62708;BME280;48769;51.624;5.886;2023-03-13T12:01:12;99350.22;;;18.36;100.00
62708;BME280;48769;51.624;5.886;2023-03-13T12:06:33;99307.13;;;18.72;100.00
62708;BME280;48769;51.624;5.886;2023-03-13T12:09:07;99317.28;;;18.60;100.00
62708;BME280;48769;51.624;5.886;2023-03-13T12:11:39;99291.38;;;18.69;100.00
62708;BME280;48769;51.624;5.886;2023-03-13T12:14:15;99303.06;;;18.35;100.00
62708;BME280;48769;51.624;5.886;2023-03-13T12:16:53;99296.59;;;18.79;100.00
62708;BME280;48769;51.624;5.886;2023-03-13T12:19:31;99294.06;;;18.61;100.00
62708;BME280;48769;51.624;5.886;2023-03-13T12:22:05;99303.59;;;18.47;100.00
62708;BME280;48769;51.624;5.886;2023-03-13T12:24:35;99290.72;;;18.26;100.00
62708;BME280;48769;51.624;5.886;2023-03-13T12:29:54;99283.34;;;18.61;100.00
62708;BME280;48769;51.624;5.886;2023-03-13T12:32:46;99274.31;;;18.78;100.00
62708;BME280;48769;51.624;5.886;2023-03-13T12:35:23;99275.81;;;19.36;100.00
62708;BME280;48769;51.624;5.886;2023-03-13T12:37:59;99250.41;;;19.95;100.00
62708;BME280;48769;51.624;5.886;2023-03-13T12:40:36;99250.19;;;19.42;100.00
62708;BME280;48769;51.624;5.886;2023-03-13T12:43:16;99258.59;;;18.91;100.00
62708;BME280;48769;51.624;5.886;2023-03-13T12:50:53;99266.97;;;18.80;100.00
62708;BME280;48769;51.624;5.886;2023-03-13T12:56:04;99262.66;;;18.30;100.00
62708;BME280;48769;51.624;5.886;2023-03-13T12:59:04;99255.31;;;18.40;100.00
62708;BME280;48769;51.624;5.886;2023-03-13T13:02:07;99248.78;;;18.43;100.00
62708;BME280;48769;51.624;5.886;2023-03-13T13:04:30;99250.25;;;18.45;100.00
62708;BME280;48769;51.624;5.886;2023-03-13T13:07:04;99246.94;;;18.19;100.00
62708;BME280;48769;51.624;5.886;2023-03-13T13:09:35;99246.28;;;18.09;100.00
62708;BME280;48769;51.624;5.886;2023-03-13T13:12:02;99229.84;;;18.77;100.00
62708;BME280;48769;51.624;5.886;2023-03-13T13:17:15;99224.66;;;19.85;100.00
62708;BME280;48769;51.624;5.886;2023-03-13T13:19:45;99215.44;;;20.87;100.00
62708;BME280;48769;51.624;5.886;2023-03-13T13:32:51;99209.75;;;21.11;91.55
62708;BME280;48769;51.624;5.886;2023-03-13T13:37:45;99195.13;;;20.69;86.55
62708;BME280;48769;51.624;5.886;2023-03-13T13:47:46;99205.47;;;19.51;84.45
62708;BME280;48769;51.624;5.886;2023-03-13T13:50:24;99185.84;;;19.27;86.43
62708;BME280;48769;51.624;5.886;2023-03-13T13:52:50;99186.22;;;19.16;85.29
62708;BME280;48769;51.624;5.886;2023-03-13T13:57:53;99164.63;;;19.49;83.57
62708;BME280;48769;51.624;5.886;2023-03-13T14:00:28;99159.78;;;19.75;81.82
62708;BME280;48769;51.624;5.886;2023-03-13T14:02:58;99155.94;;;19.47;80.81
62708;BME280;48769;51.624;5.886;2023-03-13T14:05:31;99168.78;;;19.28;82.85
62708;BME280;48769;51.624;5.886;2023-03-13T14:10:39;99166.28;;;19.50;79.17
62708;BME280;48769;51.624;5.886;2023-03-13T14:13:20;99145.34;;;19.30;76.24
62708;BME280;48769;51.624;5.886;2023-03-13T14:15:47;99138.88;;;19.17;79.00
62708;BME280;48769;51.624;5.886;2023-03-13T14:18:24;99156.25;;;18.81;78.47
62708;BME280;48769;51.624;5.886;2023-03-13T14:20:59;99140.19;;;18.89;77.97